sensor_id;sensor_type;location;lat;lon;timestamp;P1;durP1;ratioP1;P2;durP2;ratioP2
33826;SDS011;20128;45.582;5.298;2023-02-21T00:04:10;33.05;;;16.48;;
33826;SDS011;20128;45.582;5.298;2023-02-21T00:09:38;30.67;;;14.88;;
33826;SDS011;20128;45.582;5.298;2023-02-21T00:12:22;33.40;;;14.88;;
33826;SDS011;20128;45.582;5.298;2023-02-21T00:15:07;32.13;;;15.52;;
33826;SDS011;20128;45.582;5.298;2023-02-21T00:17:51;31.08;;;16.30;;
33826;SDS011;20128;45.582;5.298;2023-02-21T00:23:19;31.77;;;13.80;;
33826;SDS011;20128;45.582;5.298;2023-02-21T00:28:48;32.58;;;14.82;;
33826;SDS011;20128;45.582;5.298;2023-02-21T00:34:16;29.42;;;13.02;;
33826;SDS011;20128;45.582;5.298;2023-02-21T00:39:45;33.45;;;14.75;;
33826;SDS011;20128;45.582;5.298;2023-02-21T00:42:29;33.40;;;14.80;;
33826;SDS011;20128;45.582;5.298;2023-02-21T00:45:13;44.15;;;15.63;;
33826;SDS011;20128;45.582;5.298;2023-02-21T00:47:57;31.85;;;14.93;;
33826;SDS011;20128;45.582;5.298;2023-02-21T00:50:41;30.63;;;14.68;;
33826;SDS011;20128;45.582;5.298;2023-02-21T00:56:09;29.35;;;13.52;;
33826;SDS011;20128;45.582;5.298;2023-02-21T00:58:53;31.63;;;14.15;;
33826;SDS011;20128;45.582;5.298;2023-02-21T01:04:22;33.67;;;14.45;;
33826;SDS011;20128;45.582;5.298;2023-02-21T01:09:50;29.23;;;14.05;;
33826;SDS011;20128;45.582;5.298;2023-02-21T01:15:19;35.97;;;15.50;;
33826;SDS011;20128;45.582;5.298;2023-02-21T01:18:03;29.02;;;13.85;;
33826;SDS011;20128;45.582;5.298;2023-02-21T01:20:47;29.67;;;14.10;;
33826;SDS011;20128;45.582;5.298;2023-02-21T01:23:32;31.75;;;14.57;;
33826;SDS011;20128;45.582;5.298;2023-02-21T01:26:16;26.40;;;12.68;;
33826;SDS011;20128;45.582;5.298;2023-02-21T01:29:01;23.20;;;12.57;;
33826;SDS011;20128;45.582;5.298;2023-02-21T01:31:45;24.23;;;12.18;;
33826;SDS011;20128;45.582;5.298;2023-02-21T01:34:32;22.83;;;11.70;;
33826;SDS011;20128;45.582;5.298;2023-02-21T01:40:00;25.77;;;12.52;;
33826;SDS011;20128;45.582;5.298;2023-02-21T01:42:45;24.38;;;12.15;;
33826;SDS011;20128;45.582;5.298;2023-02-21T01:48:23;25.92;;;12.82;;
33826;SDS011;20128;45.582;5.298;2023-02-21T01:51:10;25.30;;;13.80;;
33826;SDS011;20128;45.582;5.298;2023-02-21T01:53:56;32.13;;;14.45;;
33826;SDS011;20128;45.582;5.298;2023-02-21T01:56:41;24.42;;;13.15;;
33826;SDS011;20128;45.582;5.298;2023-02-21T01:59:26;25.70;;;12.05;;
33826;SDS011;20128;45.582;5.298;2023-02-21T02:05:00;23.55;;;12.07;;
33826;SDS011;20128;45.582;5.298;2023-02-21T02:07:45;23.42;;;10.98;;
33826;SDS011;20128;45.582;5.298;2023-02-21T02:10:30;19.30;;;11.55;;
33826;SDS011;20128;45.582;5.298;2023-02-21T02:13:19;22.60;;;12.45;;
33826;SDS011;20128;45.582;5.298;2023-02-21T02:24:31;40.47;;;18.92;;
33826;SDS011;20128;45.582;5.298;2023-02-21T02:30:05;23.30;;;11.98;;
33826;SDS011;20128;45.582;5.298;2023-02-21T02:38:51;24.38;;;9.93;;
33826;SDS011;20128;45.582;5.298;2023-02-21T02:41:43;25.58;;;11.85;;
33826;SDS011;20128;45.582;5.298;2023-02-21T02:44:27;23.85;;;13.00;;
33826;SDS011;20128;45.582;5.298;2023-02-21T02:46:59;27.23;;;13.02;;
33826;SDS011;20128;45.582;5.298;2023-02-21T02:49:27;27.15;;;12.95;;
33826;SDS011;20128;45.582;5.298;2023-02-21T02:52:01;21.55;;;13.38;;
33826;SDS011;20128;45.582;5.298;2023-02-21T02:54:30;35.10;;;16.10;;
33826;SDS011;20128;45.582;5.298;2023-02-21T02:56:56;27.50;;;13.98;;
33826;SDS011;20128;45.582;5.298;2023-02-21T02:59:24;25.95;;;13.68;;
33826;SDS011;20128;45.582;5.298;2023-02-21T03:09:55;20.90;;;12.65;;
33826;SDS011;20128;45.582;5.298;2023-02-21T03:13:44;23.60;;;13.65;;
33826;SDS011;20128;45.582;5.298;2023-02-21T03:15:52;28.60;;;12.85;;
33826;SDS011;20128;45.582;5.298;2023-02-21T03:18:24;26.15;;;14.32;;
33826;SDS011;20128;45.582;5.298;2023-02-21T03:21:03;26.35;;;13.90;;
33826;SDS011;20128;45.582;5.298;2023-02-21T03:23:34;26.25;;;13.48;;
33826;SDS011;20128;45.582;5.298;2023-02-21T03:26:02;27.13;;;13.68;;
33826;SDS011;20128;45.582;5.298;2023-02-21T03:28:31;25.00;;;13.25;;
33826;SDS011;20128;45.582;5.298;2023-02-21T03:30:58;25.23;;;12.90;;
33826;SDS011;20128;45.582;5.298;2023-02-21T03:33:26;24.40;;;12.05;;
33826;SDS011;20128;45.582;5.298;2023-02-21T03:35:52;21.35;;;11.75;;
33826;SDS011;20128;45.582;5.298;2023-02-21T03:38:18;26.90;;;11.40;;
33826;SDS011;20128;45.582;5.298;2023-02-21T03:40:44;23.15;;;12.35;;
33826;SDS011;20128;45.582;5.298;2023-02-21T03:43:10;24.10;;;11.98;;
33826;SDS011;20128;45.582;5.298;2023-02-21T03:45:35;25.55;;;12.25;;
33826;SDS011;20128;45.582;5.298;2023-02-21T03:48:01;20.80;;;12.57;;
33826;SDS011;20128;45.582;5.298;2023-02-21T03:50:27;24.02;;;12.45;;
33826;SDS011;20128;45.582;5.298;2023-02-21T03:52:53;22.23;;;11.88;;
33826;SDS011;20128;45.582;5.298;2023-02-21T03:55:19;22.25;;;11.52;;
33826;SDS011;20128;45.582;5.298;2023-02-21T03:57:45;25.35;;;11.98;;
33826;SDS011;20128;45.582;5.298;2023-02-21T04:00:11;20.08;;;11.85;;
33826;SDS011;20128;45.582;5.298;2023-02-21T04:02:38;22.63;;;11.40;;
33826;SDS011;20128;45.582;5.298;2023-02-21T04:05:04;21.40;;;12.30;;
33826;SDS011;20128;45.582;5.298;2023-02-21T04:07:30;25.65;;;12.52;;
33826;SDS011;20128;45.582;5.298;2023-02-21T04:09:55;22.25;;;11.93;;
33826;SDS011;20128;45.582;5.298;2023-02-21T04:12:21;23.45;;;11.30;;
33826;SDS011;20128;45.582;5.298;2023-02-21T04:14:47;21.40;;;11.60;;
33826;SDS011;20128;45.582;5.298;2023-02-21T04:17:12;23.88;;;11.18;;
33826;SDS011;20128;45.582;5.298;2023-02-21T04:19:40;20.35;;;10.98;;
33826;SDS011;20128;45.582;5.298;2023-02-21T04:22:05;21.45;;;11.50;;
33826;SDS011;20128;45.582;5.298;2023-02-21T04:24:31;23.17;;;11.10;;
33826;SDS011;20128;45.582;5.298;2023-02-21T04:26:57;19.55;;;10.48;;
33826;SDS011;20128;45.582;5.298;2023-02-21T04:29:23;22.35;;;10.18;;
33826;SDS011;20128;45.582;5.298;2023-02-21T04:31:48;25.40;;;10.77;;
33826;SDS011;20128;45.582;5.298;2023-02-21T04:34:15;21.50;;;11.70;;
33826;SDS011;20128;45.582;5.298;2023-02-21T04:36:41;23.40;;;10.50;;
33826;SDS011;20128;45.582;5.298;2023-02-21T04:39:07;20.02;;;10.95;;
33826;SDS011;20128;45.582;5.298;2023-02-21T04:41:33;17.75;;;9.68;;
33826;SDS011;20128;45.582;5.298;2023-02-21T04:43:59;19.80;;;10.38;;
33826;SDS011;20128;45.582;5.298;2023-02-21T04:46:25;18.17;;;9.93;;
33826;SDS011;20128;45.582;5.298;2023-02-21T04:48:50;20.17;;;10.57;;
33826;SDS011;20128;45.582;5.298;2023-02-21T04:51:17;22.98;;;11.70;;
33826;SDS011;20128;45.582;5.298;2023-02-21T04:53:45;22.88;;;10.70;;
33826;SDS011;20128;45.582;5.298;2023-02-21T04:56:12;21.25;;;10.63;;
33826;SDS011;20128;45.582;5.298;2023-02-21T04:58:38;26.25;;;11.80;;
33826;SDS011;20128;45.582;5.298;2023-02-21T05:01:05;20.38;;;10.63;;
33826;SDS011;20128;45.582;5.298;2023-02-21T05:03:31;25.75;;;9.98;;
33826;SDS011;20128;45.582;5.298;2023-02-21T05:05:56;19.70;;;10.00;;
33826;SDS011;20128;45.582;5.298;2023-02-21T05:08:22;23.23;;;10.32;;
33826;SDS011;20128;45.582;5.298;2023-02-21T05:10:48;17.70;;;9.38;;
33826;SDS011;20128;45.582;5.298;2023-02-21T05:13:14;28.95;;;10.88;;
33826;SDS011;20128;45.582;5.298;2023-02-21T05:15:40;19.65;;;10.13;;
33826;SDS011;20128;45.582;5.298;2023-02-21T05:18:06;26.92;;;10.75;;
33826;SDS011;20128;45.582;5.298;2023-02-21T05:20:32;22.60;;;10.18;;
33826;SDS011;20128;45.582;5.298;2023-02-21T05:22:57;17.20;;;9.70;;
33826;SDS011;20128;45.582;5.298;2023-02-21T05:25:23;17.60;;;9.68;;
33826;SDS011;20128;45.582;5.298;2023-02-21T05:27:50;20.42;;;9.85;;
33826;SDS011;20128;45.582;5.298;2023-02-21T05:30:20;26.60;;;9.50;;
33826;SDS011;20128;45.582;5.298;2023-02-21T05:32:49;20.67;;;9.35;;
33826;SDS011;20128;45.582;5.298;2023-02-21T05:35:15;20.00;;;9.38;;
33826;SDS011;20128;45.582;5.298;2023-02-21T05:37:41;20.33;;;9.60;;
33826;SDS011;20128;45.582;5.298;2023-02-21T05:40:09;16.05;;;8.80;;
33826;SDS011;20128;45.582;5.298;2023-02-21T05:42:39;19.98;;;9.40;;
33826;SDS011;20128;45.582;5.298;2023-02-21T05:45:06;19.15;;;11.00;;
33826;SDS011;20128;45.582;5.298;2023-02-21T05:47:33;26.27;;;9.77;;
33826;SDS011;20128;45.582;5.298;2023-02-21T05:49:59;20.17;;;10.70;;
33826;SDS011;20128;45.582;5.298;2023-02-21T05:52:25;23.27;;;10.88;;
33826;SDS011;20128;45.582;5.298;2023-02-21T05:54:51;25.10;;;11.07;;
33826;SDS011;20128;45.582;5.298;2023-02-21T05:57:18;27.45;;;11.68;;
33826;SDS011;20128;45.582;5.298;2023-02-21T05:59:44;20.98;;;11.57;;
33826;SDS011;20128;45.582;5.298;2023-02-21T06:02:12;20.95;;;11.30;;
33826;SDS011;20128;45.582;5.298;2023-02-21T06:04:38;25.63;;;10.68;;
33826;SDS011;20128;45.582;5.298;2023-02-21T06:07:04;31.90;;;11.88;;
33826;SDS011;20128;45.582;5.298;2023-02-21T06:09:30;42.28;;;12.40;;
33826;SDS011;20128;45.582;5.298;2023-02-21T06:11:56;28.50;;;10.02;;
33826;SDS011;20128;45.582;5.298;2023-02-21T06:14:22;21.95;;;10.40;;
33826;SDS011;20128;45.582;5.298;2023-02-21T06:16:48;25.90;;;11.52;;
33826;SDS011;20128;45.582;5.298;2023-02-21T06:19:14;23.23;;;12.32;;
33826;SDS011;20128;45.582;5.298;2023-02-21T06:21:40;35.88;;;11.00;;
33826;SDS011;20128;45.582;5.298;2023-02-21T06:24:07;29.17;;;11.25;;
33826;SDS011;20128;45.582;5.298;2023-02-21T06:26:34;30.92;;;11.10;;
33826;SDS011;20128;45.582;5.298;2023-02-21T06:29:01;36.30;;;13.07;;
33826;SDS011;20128;45.582;5.298;2023-02-21T06:31:29;27.65;;;13.43;;
33826;SDS011;20128;45.582;5.298;2023-02-21T06:33:55;26.45;;;12.93;;
33826;SDS011;20128;45.582;5.298;2023-02-21T06:36:22;27.45;;;13.63;;
33826;SDS011;20128;45.582;5.298;2023-02-21T06:38:50;31.98;;;13.77;;
33826;SDS011;20128;45.582;5.298;2023-02-21T06:41:20;32.78;;;14.00;;
33826;SDS011;20128;45.582;5.298;2023-02-21T06:43:48;34.15;;;13.98;;
33826;SDS011;20128;45.582;5.298;2023-02-21T06:46:22;43.50;;;13.63;;
33826;SDS011;20128;45.582;5.298;2023-02-21T06:48:49;36.53;;;13.45;;
33826;SDS011;20128;45.582;5.298;2023-02-21T06:51:15;37.20;;;13.65;;
33826;SDS011;20128;45.582;5.298;2023-02-21T06:53:42;31.33;;;12.00;;
33826;SDS011;20128;45.582;5.298;2023-02-21T06:56:09;22.90;;;12.10;;
33826;SDS011;20128;45.582;5.298;2023-02-21T06:58:35;32.28;;;13.52;;
33826;SDS011;20128;45.582;5.298;2023-02-21T07:01:01;38.28;;;13.27;;
33826;SDS011;20128;45.582;5.298;2023-02-21T07:03:27;35.58;;;13.52;;
33826;SDS011;20128;45.582;5.298;2023-02-21T07:05:52;35.17;;;13.18;;
33826;SDS011;20128;45.582;5.298;2023-02-21T07:08:18;35.92;;;12.93;;
33826;SDS011;20128;45.582;5.298;2023-02-21T07:10:44;30.65;;;13.20;;
33826;SDS011;20128;45.582;5.298;2023-02-21T07:13:09;35.75;;;15.45;;
33826;SDS011;20128;45.582;5.298;2023-02-21T07:15:35;43.75;;;17.38;;
33826;SDS011;20128;45.582;5.298;2023-02-21T07:18:01;79.20;;;26.80;;
33826;SDS011;20128;45.582;5.298;2023-02-21T07:20:26;50.97;;;21.60;;
33826;SDS011;20128;45.582;5.298;2023-02-21T07:22:52;61.10;;;25.45;;
33826;SDS011;20128;45.582;5.298;2023-02-21T07:25:19;94.03;;;30.10;;
33826;SDS011;20128;45.582;5.298;2023-02-21T07:27:46;49.67;;;19.88;;
33826;SDS011;20128;45.582;5.298;2023-02-21T07:30:13;53.30;;;20.25;;
33826;SDS011;20128;45.582;5.298;2023-02-21T07:32:39;50.85;;;20.90;;
33826;SDS011;20128;45.582;5.298;2023-02-21T07:35:05;41.45;;;18.85;;
33826;SDS011;20128;45.582;5.298;2023-02-21T07:37:31;34.92;;;16.70;;
33826;SDS011;20128;45.582;5.298;2023-02-21T07:39:56;45.92;;;17.58;;
33826;SDS011;20128;45.582;5.298;2023-02-21T07:42:22;37.92;;;17.25;;
33826;SDS011;20128;45.582;5.298;2023-02-21T07:44:53;38.83;;;17.48;;
33826;SDS011;20128;45.582;5.298;2023-02-21T07:47:20;31.23;;;14.88;;
33826;SDS011;20128;45.582;5.298;2023-02-21T07:49:47;42.78;;;17.75;;
33826;SDS011;20128;45.582;5.298;2023-02-21T07:52:12;38.83;;;19.05;;
33826;SDS011;20128;45.582;5.298;2023-02-21T07:54:38;33.40;;;15.52;;
33826;SDS011;20128;45.582;5.298;2023-02-21T07:57:04;37.53;;;16.42;;
33826;SDS011;20128;45.582;5.298;2023-02-21T07:59:29;32.78;;;16.65;;
33826;SDS011;20128;45.582;5.298;2023-02-21T08:01:55;44.42;;;18.45;;
33826;SDS011;20128;45.582;5.298;2023-02-21T08:04:21;38.30;;;19.98;;
33826;SDS011;20128;45.582;5.298;2023-02-21T08:06:48;35.25;;;16.67;;
33826;SDS011;20128;45.582;5.298;2023-02-21T08:09:14;29.45;;;16.02;;
33826;SDS011;20128;45.582;5.298;2023-02-21T08:11:40;35.80;;;15.90;;
33826;SDS011;20128;45.582;5.298;2023-02-21T08:14:06;36.42;;;17.90;;
33826;SDS011;20128;45.582;5.298;2023-02-21T08:16:31;28.17;;;15.38;;
33826;SDS011;20128;45.582;5.298;2023-02-21T08:18:57;31.05;;;15.85;;
33826;SDS011;20128;45.582;5.298;2023-02-21T08:21:23;32.83;;;17.10;;
33826;SDS011;20128;45.582;5.298;2023-02-21T08:23:52;38.63;;;16.45;;
33826;SDS011;20128;45.582;5.298;2023-02-21T08:26:19;42.00;;;19.25;;
33826;SDS011;20128;45.582;5.298;2023-02-21T08:28:45;32.92;;;17.08;;
33826;SDS011;20128;45.582;5.298;2023-02-21T08:31:10;41.90;;;16.25;;
33826;SDS011;20128;45.582;5.298;2023-02-21T08:33:36;31.25;;;16.73;;
33826;SDS011;20128;45.582;5.298;2023-02-21T08:36:02;33.63;;;15.38;;
33826;SDS011;20128;45.582;5.298;2023-02-21T08:38:28;31.17;;;15.50;;
33826;SDS011;20128;45.582;5.298;2023-02-21T08:40:54;37.42;;;17.27;;
33826;SDS011;20128;45.582;5.298;2023-02-21T08:43:20;42.63;;;20.83;;
33826;SDS011;20128;45.582;5.298;2023-02-21T08:45:45;31.83;;;16.33;;
33826;SDS011;20128;45.582;5.298;2023-02-21T08:48:11;64.05;;;26.48;;
33826;SDS011;20128;45.582;5.298;2023-02-21T08:50:37;90.22;;;36.30;;
33826;SDS011;20128;45.582;5.298;2023-02-21T08:53:02;55.03;;;24.00;;
33826;SDS011;20128;45.582;5.298;2023-02-21T08:55:28;39.45;;;16.92;;
33826;SDS011;20128;45.582;5.298;2023-02-21T08:57:54;39.75;;;18.38;;
33826;SDS011;20128;45.582;5.298;2023-02-21T09:00:21;37.97;;;16.75;;
33826;SDS011;20128;45.582;5.298;2023-02-21T09:02:48;32.08;;;16.70;;
33826;SDS011;20128;45.582;5.298;2023-02-21T09:05:16;38.55;;;16.45;;
33826;SDS011;20128;45.582;5.298;2023-02-21T09:07:47;26.63;;;14.55;;
33826;SDS011;20128;45.582;5.298;2023-02-21T09:10:13;37.40;;;15.57;;
33826;SDS011;20128;45.582;5.298;2023-02-21T09:12:41;31.88;;;13.80;;
33826;SDS011;20128;45.582;5.298;2023-02-21T09:15:06;33.60;;;13.43;;
33826;SDS011;20128;45.582;5.298;2023-02-21T09:17:33;28.17;;;14.40;;
33826;SDS011;20128;45.582;5.298;2023-02-21T09:20:00;31.63;;;15.25;;
33826;SDS011;20128;45.582;5.298;2023-02-21T09:22:30;40.60;;;14.57;;
33826;SDS011;20128;45.582;5.298;2023-02-21T09:24:57;26.08;;;14.43;;
33826;SDS011;20128;45.582;5.298;2023-02-21T09:27:23;35.92;;;17.55;;
33826;SDS011;20128;45.582;5.298;2023-02-21T09:30:10;36.25;;;18.35;;
33826;SDS011;20128;45.582;5.298;2023-02-21T09:32:38;31.20;;;18.13;;
33826;SDS011;20128;45.582;5.298;2023-02-21T09:35:04;33.20;;;16.48;;
33826;SDS011;20128;45.582;5.298;2023-02-21T09:37:30;34.47;;;17.02;;
33826;SDS011;20128;45.582;5.298;2023-02-21T09:39:57;38.58;;;18.27;;
33826;SDS011;20128;45.582;5.298;2023-02-21T09:42:25;42.95;;;16.15;;
33826;SDS011;20128;45.582;5.298;2023-02-21T09:44:54;39.63;;;16.40;;
33826;SDS011;20128;45.582;5.298;2023-02-21T09:47:23;30.40;;;15.27;;
33826;SDS011;20128;45.582;5.298;2023-02-21T09:50:03;37.28;;;14.77;;
33826;SDS011;20128;45.582;5.298;2023-02-21T09:52:35;36.42;;;15.73;;
33826;SDS011;20128;45.582;5.298;2023-02-21T09:55:26;33.60;;;14.93;;
33826;SDS011;20128;45.582;5.298;2023-02-21T09:58:02;28.60;;;16.15;;
33826;SDS011;20128;45.582;5.298;2023-02-21T10:00:34;27.85;;;13.90;;
33826;SDS011;20128;45.582;5.298;2023-02-21T10:05:45;26.48;;;14.25;;
33826;SDS011;20128;45.582;5.298;2023-02-21T10:08:24;26.60;;;15.05;;
33826;SDS011;20128;45.582;5.298;2023-02-21T10:16:40;31.65;;;14.57;;
33826;SDS011;20128;45.582;5.298;2023-02-21T10:19:17;28.85;;;14.50;;
33826;SDS011;20128;45.582;5.298;2023-02-21T10:21:45;29.45;;;13.98;;
33826;SDS011;20128;45.582;5.298;2023-02-21T10:24:21;27.65;;;15.95;;
33826;SDS011;20128;45.582;5.298;2023-02-21T10:27:07;30.17;;;14.60;;
33826;SDS011;20128;45.582;5.298;2023-02-21T10:32:31;26.85;;;13.25;;
33826;SDS011;20128;45.582;5.298;2023-02-21T10:34:59;33.83;;;14.07;;
33826;SDS011;20128;45.582;5.298;2023-02-21T10:37:27;30.15;;;13.90;;
33826;SDS011;20128;45.582;5.298;2023-02-21T10:43:00;20.92;;;12.65;;
33826;SDS011;20128;45.582;5.298;2023-02-21T10:45:44;22.67;;;12.63;;
33826;SDS011;20128;45.582;5.298;2023-02-21T10:48:12;24.00;;;12.00;;
33826;SDS011;20128;45.582;5.298;2023-02-21T10:50:43;21.30;;;13.02;;
33826;SDS011;20128;45.582;5.298;2023-02-21T10:56:11;26.90;;;12.95;;
33826;SDS011;20128;45.582;5.298;2023-02-21T10:59:02;25.67;;;12.63;;
33826;SDS011;20128;45.582;5.298;2023-02-21T11:01:40;20.08;;;12.65;;
33826;SDS011;20128;45.582;5.298;2023-02-21T11:07:05;23.45;;;13.57;;
33826;SDS011;20128;45.582;5.298;2023-02-21T11:09:39;26.63;;;14.23;;
33826;SDS011;20128;45.582;5.298;2023-02-21T11:17:18;24.23;;;12.75;;
33826;SDS011;20128;45.582;5.298;2023-02-21T11:25:15;25.58;;;15.38;;
33826;SDS011;20128;45.582;5.298;2023-02-21T11:28:00;24.00;;;13.82;;
33826;SDS011;20128;45.582;5.298;2023-02-21T11:30:43;31.48;;;14.27;;
33826;SDS011;20128;45.582;5.298;2023-02-21T11:33:26;28.88;;;14.48;;
33826;SDS011;20128;45.582;5.298;2023-02-21T11:36:05;23.58;;;13.57;;
33826;SDS011;20128;45.582;5.298;2023-02-21T11:41:17;24.42;;;13.82;;
33826;SDS011;20128;45.582;5.298;2023-02-21T11:43:51;28.88;;;14.75;;
33826;SDS011;20128;45.582;5.298;2023-02-21T11:54:27;31.70;;;15.07;;
33826;SDS011;20128;45.582;5.298;2023-02-21T12:00:10;23.98;;;15.40;;
33826;SDS011;20128;45.582;5.298;2023-02-21T12:05:41;24.88;;;15.07;;
33826;SDS011;20128;45.582;5.298;2023-02-21T12:11:07;26.08;;;15.30;;
33826;SDS011;20128;45.582;5.298;2023-02-21T12:24:38;24.20;;;13.32;;
33826;SDS011;20128;45.582;5.298;2023-02-21T12:32:58;22.67;;;13.35;;
33826;SDS011;20128;45.582;5.298;2023-02-21T12:35:43;20.00;;;13.15;;
33826;SDS011;20128;45.582;5.298;2023-02-21T12:38:26;23.38;;;12.88;;
33826;SDS011;20128;45.582;5.298;2023-02-21T12:46:32;23.95;;;12.88;;
33826;SDS011;20128;45.582;5.298;2023-02-21T12:49:21;23.80;;;13.45;;
33826;SDS011;20128;45.582;5.298;2023-02-21T12:51:50;26.88;;;13.63;;
33826;SDS011;20128;45.582;5.298;2023-02-21T12:54:26;23.75;;;12.40;;
33826;SDS011;20128;45.582;5.298;2023-02-21T12:57:04;22.83;;;12.27;;
33826;SDS011;20128;45.582;5.298;2023-02-21T12:59:42;25.33;;;13.15;;
33826;SDS011;20128;45.582;5.298;2023-02-21T13:04:46;24.08;;;12.70;;
33826;SDS011;20128;45.582;5.298;2023-02-21T13:07:17;21.17;;;13.00;;
33826;SDS011;20128;45.582;5.298;2023-02-21T13:09:54;26.10;;;11.07;;
33826;SDS011;20128;45.582;5.298;2023-02-21T13:12:21;23.55;;;14.23;;
33826;SDS011;20128;45.582;5.298;2023-02-21T13:14:58;24.67;;;12.77;;
33826;SDS011;20128;45.582;5.298;2023-02-21T13:17:28;22.00;;;13.23;;
33826;SDS011;20128;45.582;5.298;2023-02-21T13:20:07;22.52;;;13.25;;
33826;SDS011;20128;45.582;5.298;2023-02-21T13:28:44;24.33;;;12.82;;
33826;SDS011;20128;45.582;5.298;2023-02-21T13:31:20;24.23;;;13.27;;
33826;SDS011;20128;45.582;5.298;2023-02-21T13:33:55;26.75;;;13.02;;
33826;SDS011;20128;45.582;5.298;2023-02-21T13:36:28;24.53;;;13.43;;
33826;SDS011;20128;45.582;5.298;2023-02-21T13:41:29;19.73;;;12.82;;
33826;SDS011;20128;45.582;5.298;2023-02-21T13:43:59;28.55;;;13.55;;
33826;SDS011;20128;45.582;5.298;2023-02-21T14:13:39;23.88;;;14.90;;
33826;SDS011;20128;45.582;5.298;2023-02-21T14:21:05;24.50;;;13.15;;
33826;SDS011;20128;45.582;5.298;2023-02-21T14:26:49;25.27;;;14.35;;
33826;SDS011;20128;45.582;5.298;2023-02-21T14:29:42;24.35;;;13.30;;
33826;SDS011;20128;45.582;5.298;2023-02-21T14:32:47;28.13;;;13.98;;
33826;SDS011;20128;45.582;5.298;2023-02-21T14:35:25;25.13;;;13.82;;
33826;SDS011;20128;45.582;5.298;2023-02-21T14:38:03;21.85;;;12.73;;
33826;SDS011;20128;45.582;5.298;2023-02-21T14:40:38;23.00;;;12.23;;
33826;SDS011;20128;45.582;5.298;2023-02-21T15:02:24;26.85;;;12.50;;
33826;SDS011;20128;45.582;5.298;2023-02-21T15:05:15;21.73;;;11.88;;
33826;SDS011;20128;45.582;5.298;2023-02-21T15:12:49;23.50;;;13.45;;
33826;SDS011;20128;45.582;5.298;2023-02-21T15:15:19;28.38;;;13.10;;
33826;SDS011;20128;45.582;5.298;2023-02-21T15:18:39;24.38;;;14.10;;
33826;SDS011;20128;45.582;5.298;2023-02-21T15:23:42;28.70;;;14.00;;
33826;SDS011;20128;45.582;5.298;2023-02-21T15:26:15;22.40;;;13.27;;
33826;SDS011;20128;45.582;5.298;2023-02-21T15:29:01;26.23;;;13.20;;
33826;SDS011;20128;45.582;5.298;2023-02-21T15:31:33;29.10;;;14.02;;
33826;SDS011;20128;45.582;5.298;2023-02-21T15:34:04;26.25;;;13.02;;
33826;SDS011;20128;45.582;5.298;2023-02-21T15:36:30;26.65;;;13.82;;
33826;SDS011;20128;45.582;5.298;2023-02-21T15:41:44;25.75;;;12.65;;
33826;SDS011;20128;45.582;5.298;2023-02-21T15:44:16;24.77;;;12.80;;
33826;SDS011;20128;45.582;5.298;2023-02-21T15:46:49;23.05;;;12.68;;
33826;SDS011;20128;45.582;5.298;2023-02-21T15:51:49;28.88;;;13.70;;
33826;SDS011;20128;45.582;5.298;2023-02-21T15:54:32;29.15;;;13.50;;
33826;SDS011;20128;45.582;5.298;2023-02-21T15:59:35;23.80;;;12.60;;
33826;SDS011;20128;45.582;5.298;2023-02-21T16:04:37;24.88;;;13.27;;
33826;SDS011;20128;45.582;5.298;2023-02-21T16:07:19;26.13;;;13.55;;
33826;SDS011;20128;45.582;5.298;2023-02-21T16:09:46;25.38;;;13.38;;
33826;SDS011;20128;45.582;5.298;2023-02-21T16:12:21;30.60;;;12.80;;
33826;SDS011;20128;45.582;5.298;2023-02-21T16:14:55;35.17;;;14.52;;
33826;SDS011;20128;45.582;5.298;2023-02-21T16:17:40;27.98;;;12.20;;
33826;SDS011;20128;45.582;5.298;2023-02-21T16:22:40;25.98;;;12.05;;
33826;SDS011;20128;45.582;5.298;2023-02-21T16:25:13;23.30;;;12.50;;
33826;SDS011;20128;45.582;5.298;2023-02-21T16:27:48;23.40;;;11.82;;
33826;SDS011;20128;45.582;5.298;2023-02-21T16:30:19;23.63;;;11.80;;
33826;SDS011;20128;45.582;5.298;2023-02-21T16:32:45;24.17;;;13.32;;
33826;SDS011;20128;45.582;5.298;2023-02-21T16:35:17;21.05;;;11.32;;
33826;SDS011;20128;45.582;5.298;2023-02-21T16:37:45;24.40;;;11.38;;
33826;SDS011;20128;45.582;5.298;2023-02-21T16:40:14;18.83;;;11.65;;
33826;SDS011;20128;45.582;5.298;2023-02-21T16:42:47;28.08;;;12.30;;
33826;SDS011;20128;45.582;5.298;2023-02-21T16:45:13;29.45;;;13.68;;
33826;SDS011;20128;45.582;5.298;2023-02-21T16:47:39;30.58;;;13.75;;
33826;SDS011;20128;45.582;5.298;2023-02-21T16:50:18;27.55;;;15.30;;
33826;SDS011;20128;45.582;5.298;2023-02-21T16:52:47;23.50;;;13.98;;
33826;SDS011;20128;45.582;5.298;2023-02-21T16:55:13;25.83;;;15.05;;
33826;SDS011;20128;45.582;5.298;2023-02-21T16:57:45;33.00;;;14.02;;
33826;SDS011;20128;45.582;5.298;2023-02-21T17:00:12;28.55;;;12.57;;
33826;SDS011;20128;45.582;5.298;2023-02-21T17:02:39;23.85;;;13.48;;
33826;SDS011;20128;45.582;5.298;2023-02-21T17:05:05;25.85;;;12.07;;
33826;SDS011;20128;45.582;5.298;2023-02-21T17:07:30;22.85;;;13.20;;
33826;SDS011;20128;45.582;5.298;2023-02-21T17:09:56;23.75;;;13.52;;
33826;SDS011;20128;45.582;5.298;2023-02-21T17:12:22;37.97;;;16.00;;
33826;SDS011;20128;45.582;5.298;2023-02-21T17:14:48;34.53;;;17.38;;
33826;SDS011;20128;45.582;5.298;2023-02-21T17:17:13;28.40;;;16.35;;
33826;SDS011;20128;45.582;5.298;2023-02-21T17:19:39;30.13;;;16.00;;
33826;SDS011;20128;45.582;5.298;2023-02-21T17:22:05;30.83;;;15.63;;
33826;SDS011;20128;45.582;5.298;2023-02-21T17:24:30;27.95;;;14.13;;
33826;SDS011;20128;45.582;5.298;2023-02-21T17:26:56;24.10;;;14.55;;
33826;SDS011;20128;45.582;5.298;2023-02-21T17:29:22;28.98;;;15.27;;
33826;SDS011;20128;45.582;5.298;2023-02-21T17:31:52;24.17;;;13.20;;
33826;SDS011;20128;45.582;5.298;2023-02-21T17:34:20;28.88;;;13.68;;
33826;SDS011;20128;45.582;5.298;2023-02-21T17:36:55;25.63;;;13.85;;
33826;SDS011;20128;45.582;5.298;2023-02-21T17:39:21;29.95;;;14.52;;
33826;SDS011;20128;45.582;5.298;2023-02-21T17:41:47;29.98;;;15.13;;
33826;SDS011;20128;45.582;5.298;2023-02-21T17:44:13;26.67;;;14.43;;
33826;SDS011;20128;45.582;5.298;2023-02-21T17:46:44;25.02;;;14.57;;
33826;SDS011;20128;45.582;5.298;2023-02-21T17:49:17;31.33;;;14.88;;
33826;SDS011;20128;45.582;5.298;2023-02-21T17:51:45;27.73;;;13.90;;
33826;SDS011;20128;45.582;5.298;2023-02-21T17:54:12;26.83;;;14.95;;
33826;SDS011;20128;45.582;5.298;2023-02-21T17:56:38;32.40;;;15.20;;
33826;SDS011;20128;45.582;5.298;2023-02-21T17:59:04;34.63;;;15.80;;
33826;SDS011;20128;45.582;5.298;2023-02-21T18:01:30;27.60;;;14.63;;
33826;SDS011;20128;45.582;5.298;2023-02-21T18:03:56;36.97;;;15.07;;
33826;SDS011;20128;45.582;5.298;2023-02-21T18:06:25;33.05;;;14.90;;
33826;SDS011;20128;45.582;5.298;2023-02-21T18:08:51;25.55;;;14.20;;
33826;SDS011;20128;45.582;5.298;2023-02-21T18:11:18;28.23;;;15.52;;
33826;SDS011;20128;45.582;5.298;2023-02-21T18:13:45;28.35;;;14.35;;
33826;SDS011;20128;45.582;5.298;2023-02-21T18:16:11;30.27;;;15.18;;
33826;SDS011;20128;45.582;5.298;2023-02-21T18:18:37;26.42;;;13.20;;
33826;SDS011;20128;45.582;5.298;2023-02-21T18:21:03;29.70;;;14.35;;
33826;SDS011;20128;45.582;5.298;2023-02-21T18:23:29;26.42;;;15.38;;
33826;SDS011;20128;45.582;5.298;2023-02-21T18:25:56;26.08;;;13.68;;